sensor_id;sensor_type;location;lat;lon;timestamp;P1;durP1;ratioP1;P2;durP2;ratioP2
17566;SDS011;8901;52.088;5.084;2022-11-10T00:00:40;39.30;;;36.47;;
17566;SDS011;8901;52.088;5.084;2022-11-10T00:03:08;38.97;;;36.27;;
17566;SDS011;8901;52.088;5.084;2022-11-10T00:05:36;39.73;;;36.97;;
17566;SDS011;8901;52.088;5.084;2022-11-10T00:08:05;42.50;;;39.87;;
17566;SDS011;8901;52.088;5.084;2022-11-10T00:10:34;40.57;;;37.10;;
17566;SDS011;8901;52.088;5.084;2022-11-10T00:13:21;40.23;;;37.37;;
17566;SDS011;8901;52.088;5.084;2022-11-10T00:15:49;39.40;;;36.73;;
17566;SDS011;8901;52.088;5.084;2022-11-10T00:18:34;40.93;;;38.27;;
17566;SDS011;8901;52.088;5.084;2022-11-10T00:21:02;42.73;;;39.90;;
17566;SDS011;8901;52.088;5.084;2022-11-10T00:23:31;43.53;;;40.33;;
17566;SDS011;8901;52.088;5.084;2022-11-10T00:25:58;42.53;;;39.80;;
17566;SDS011;8901;52.088;5.084;2022-11-10T00:28:25;40.63;;;37.43;;
17566;SDS011;8901;52.088;5.084;2022-11-10T00:30:52;39.90;;;37.13;;
17566;SDS011;8901;52.088;5.084;2022-11-10T00:33:20;35.13;;;32.63;;
17566;SDS011;8901;52.088;5.084;2022-11-10T00:35:47;39.70;;;37.03;;
17566;SDS011;8901;52.088;5.084;2022-11-10T00:38:14;41.67;;;38.97;;
17566;SDS011;8901;52.088;5.084;2022-11-10T00:40:42;43.43;;;40.03;;
17566;SDS011;8901;52.088;5.084;2022-11-10T00:43:09;42.53;;;39.70;;
17566;SDS011;8901;52.088;5.084;2022-11-10T00:45:39;43.57;;;40.23;;
17566;SDS011;8901;52.088;5.084;2022-11-10T00:48:06;43.30;;;40.33;;
17566;SDS011;8901;52.088;5.084;2022-11-10T00:50:34;43.90;;;41.07;;
17566;SDS011;8901;52.088;5.084;2022-11-10T00:53:01;47.40;;;43.97;;
17566;SDS011;8901;52.088;5.084;2022-11-10T00:55:28;47.33;;;44.20;;
17566;SDS011;8901;52.088;5.084;2022-11-10T00:57:57;46.07;;;43.00;;
17566;SDS011;8901;52.088;5.084;2022-11-10T01:00:25;47.77;;;44.47;;
17566;SDS011;8901;52.088;5.084;2022-11-10T01:02:53;46.23;;;43.30;;
17566;SDS011;8901;52.088;5.084;2022-11-10T01:05:20;42.97;;;40.07;;
17566;SDS011;8901;52.088;5.084;2022-11-10T01:07:47;42.93;;;39.30;;
17566;SDS011;8901;52.088;5.084;2022-11-10T01:10:15;41.60;;;38.17;;
17566;SDS011;8901;52.088;5.084;2022-11-10T01:12:43;42.73;;;39.70;;
17566;SDS011;8901;52.088;5.084;2022-11-10T01:15:11;43.20;;;40.50;;
17566;SDS011;8901;52.088;5.084;2022-11-10T01:17:38;48.30;;;45.00;;
17566;SDS011;8901;52.088;5.084;2022-11-10T01:20:06;44.57;;;41.03;;
17566;SDS011;8901;52.088;5.084;2022-11-10T01:22:33;41.67;;;38.80;;
17566;SDS011;8901;52.088;5.084;2022-11-10T01:25:00;41.47;;;38.70;;
17566;SDS011;8901;52.088;5.084;2022-11-10T01:27:28;43.37;;;40.43;;
17566;SDS011;8901;52.088;5.084;2022-11-10T01:29:55;42.97;;;39.77;;
17566;SDS011;8901;52.088;5.084;2022-11-10T01:32:24;44.83;;;41.60;;
17566;SDS011;8901;52.088;5.084;2022-11-10T01:34:51;42.37;;;39.67;;
17566;SDS011;8901;52.088;5.084;2022-11-10T01:37:18;41.10;;;38.43;;
17566;SDS011;8901;52.088;5.084;2022-11-10T01:39:45;42.03;;;39.40;;
17566;SDS011;8901;52.088;5.084;2022-11-10T01:42:12;44.37;;;41.30;;
17566;SDS011;8901;52.088;5.084;2022-11-10T01:44:39;41.80;;;38.73;;
17566;SDS011;8901;52.088;5.084;2022-11-10T01:47:09;45.40;;;42.20;;
17566;SDS011;8901;52.088;5.084;2022-11-10T01:49:38;45.83;;;42.67;;
17566;SDS011;8901;52.088;5.084;2022-11-10T01:52:06;46.67;;;42.93;;
17566;SDS011;8901;52.088;5.084;2022-11-10T01:54:35;45.03;;;42.07;;
17566;SDS011;8901;52.088;5.084;2022-11-10T01:57:03;45.43;;;42.70;;
17566;SDS011;8901;52.088;5.084;2022-11-10T01:59:31;46.30;;;43.03;;
17566;SDS011;8901;52.088;5.084;2022-11-10T02:02:02;45.63;;;42.30;;
17566;SDS011;8901;52.088;5.084;2022-11-10T02:04:32;44.13;;;41.17;;
17566;SDS011;8901;52.088;5.084;2022-11-10T02:07:02;45.17;;;42.00;;
17566;SDS011;8901;52.088;5.084;2022-11-10T02:09:29;42.57;;;39.43;;
17566;SDS011;8901;52.088;5.084;2022-11-10T02:11:56;45.97;;;42.70;;
17566;SDS011;8901;52.088;5.084;2022-11-10T02:14:23;45.23;;;42.37;;
17566;SDS011;8901;52.088;5.084;2022-11-10T02:16:51;44.97;;;41.83;;
17566;SDS011;8901;52.088;5.084;2022-11-10T02:19:19;41.73;;;38.83;;
17566;SDS011;8901;52.088;5.084;2022-11-10T02:21:48;45.10;;;41.90;;
17566;SDS011;8901;52.088;5.084;2022-11-10T02:24:15;44.83;;;41.57;;
17566;SDS011;8901;52.088;5.084;2022-11-10T02:26:44;41.80;;;38.83;;
17566;SDS011;8901;52.088;5.084;2022-11-10T02:29:11;44.00;;;41.13;;
17566;SDS011;8901;52.088;5.084;2022-11-10T02:31:39;43.57;;;40.67;;
17566;SDS011;8901;52.088;5.084;2022-11-10T02:34:06;43.80;;;40.97;;
17566;SDS011;8901;52.088;5.084;2022-11-10T02:36:34;45.97;;;42.60;;
17566;SDS011;8901;52.088;5.084;2022-11-10T02:39:02;43.07;;;40.33;;
17566;SDS011;8901;52.088;5.084;2022-11-10T02:41:29;43.37;;;40.20;;
17566;SDS011;8901;52.088;5.084;2022-11-10T02:43:56;41.57;;;39.00;;
17566;SDS011;8901;52.088;5.084;2022-11-10T02:46:24;42.03;;;39.13;;
17566;SDS011;8901;52.088;5.084;2022-11-10T02:48:51;43.30;;;40.53;;
17566;SDS011;8901;52.088;5.084;2022-11-10T02:51:18;44.67;;;41.40;;
17566;SDS011;8901;52.088;5.084;2022-11-10T02:53:45;41.43;;;38.20;;
17566;SDS011;8901;52.088;5.084;2022-11-10T02:56:15;43.37;;;40.30;;
17566;SDS011;8901;52.088;5.084;2022-11-10T02:58:42;43.17;;;39.93;;
17566;SDS011;8901;52.088;5.084;2022-11-10T03:01:09;45.13;;;41.87;;
17566;SDS011;8901;52.088;5.084;2022-11-10T03:03:37;44.30;;;41.40;;
17566;SDS011;8901;52.088;5.084;2022-11-10T03:06:06;42.10;;;39.33;;
17566;SDS011;8901;52.088;5.084;2022-11-10T03:08:33;44.53;;;41.53;;
17566;SDS011;8901;52.088;5.084;2022-11-10T03:11:00;42.70;;;39.73;;
17566;SDS011;8901;52.088;5.084;2022-11-10T03:13:28;41.07;;;38.30;;
17566;SDS011;8901;52.088;5.084;2022-11-10T03:15:56;42.53;;;39.27;;
17566;SDS011;8901;52.088;5.084;2022-11-10T03:18:23;42.23;;;39.43;;
17566;SDS011;8901;52.088;5.084;2022-11-10T03:20:50;40.03;;;37.43;;
17566;SDS011;8901;52.088;5.084;2022-11-10T03:23:17;40.57;;;37.40;;
17566;SDS011;8901;52.088;5.084;2022-11-10T03:25:45;43.37;;;40.37;;
17566;SDS011;8901;52.088;5.084;2022-11-10T03:28:12;45.03;;;41.83;;
17566;SDS011;8901;52.088;5.084;2022-11-10T03:30:40;43.17;;;40.23;;
17566;SDS011;8901;52.088;5.084;2022-11-10T03:33:08;39.83;;;37.20;;
17566;SDS011;8901;52.088;5.084;2022-11-10T03:35:35;41.70;;;38.83;;
17566;SDS011;8901;52.088;5.084;2022-11-10T03:38:02;44.40;;;41.27;;
17566;SDS011;8901;52.088;5.084;2022-11-10T03:40:29;39.30;;;36.80;;
17566;SDS011;8901;52.088;5.084;2022-11-10T03:42:56;43.60;;;40.37;;
17566;SDS011;8901;52.088;5.084;2022-11-10T03:45:23;42.13;;;39.30;;
17566;SDS011;8901;52.088;5.084;2022-11-10T03:47:52;42.37;;;39.47;;
17566;SDS011;8901;52.088;5.084;2022-11-10T03:50:20;40.60;;;38.20;;
17566;SDS011;8901;52.088;5.084;2022-11-10T03:52:47;42.30;;;39.77;;
17566;SDS011;8901;52.088;5.084;2022-11-10T03:55:14;41.30;;;38.43;;
17566;SDS011;8901;52.088;5.084;2022-11-10T03:57:42;40.27;;;37.67;;
17566;SDS011;8901;52.088;5.084;2022-11-10T04:00:10;39.17;;;36.57;;
17566;SDS011;8901;52.088;5.084;2022-11-10T04:02:37;39.87;;;37.17;;
17566;SDS011;8901;52.088;5.084;2022-11-10T04:05:07;42.97;;;39.93;;
17566;SDS011;8901;52.088;5.084;2022-11-10T04:07:56;43.83;;;40.60;;
17566;SDS011;8901;52.088;5.084;2022-11-10T04:10:41;42.10;;;39.60;;
17566;SDS011;8901;52.088;5.084;2022-11-10T04:13:08;43.30;;;39.87;;
17566;SDS011;8901;52.088;5.084;2022-11-10T04:15:52;42.37;;;39.60;;
17566;SDS011;8901;52.088;5.084;2022-11-10T04:18:20;42.23;;;39.57;;
17566;SDS011;8901;52.088;5.084;2022-11-10T04:20:50;43.30;;;40.33;;
17566;SDS011;8901;52.088;5.084;2022-11-10T04:23:17;44.57;;;41.77;;
17566;SDS011;8901;52.088;5.084;2022-11-10T04:25:55;44.90;;;41.97;;
17566;SDS011;8901;52.088;5.084;2022-11-10T04:28:41;42.43;;;39.73;;
17566;SDS011;8901;52.088;5.084;2022-11-10T04:31:08;42.37;;;39.73;;
17566;SDS011;8901;52.088;5.084;2022-11-10T04:33:35;44.77;;;41.27;;
17566;SDS011;8901;52.088;5.084;2022-11-10T04:36:05;47.20;;;44.13;;
17566;SDS011;8901;52.088;5.084;2022-11-10T04:38:32;44.70;;;41.63;;
17566;SDS011;8901;52.088;5.084;2022-11-10T04:40:59;44.77;;;41.40;;
17566;SDS011;8901;52.088;5.084;2022-11-10T04:43:26;44.03;;;40.90;;
17566;SDS011;8901;52.088;5.084;2022-11-10T04:45:54;43.10;;;40.10;;
17566;SDS011;8901;52.088;5.084;2022-11-10T04:48:21;45.33;;;42.10;;
17566;SDS011;8901;52.088;5.084;2022-11-10T04:50:48;46.23;;;43.07;;
17566;SDS011;8901;52.088;5.084;2022-11-10T04:53:17;44.40;;;41.40;;
17566;SDS011;8901;52.088;5.084;2022-11-10T04:55:45;45.37;;;42.67;;
17566;SDS011;8901;52.088;5.084;2022-11-10T04:58:12;46.30;;;43.00;;
17566;SDS011;8901;52.088;5.084;2022-11-10T05:00:40;43.50;;;40.67;;
17566;SDS011;8901;52.088;5.084;2022-11-10T05:03:09;43.33;;;40.47;;
17566;SDS011;8901;52.088;5.084;2022-11-10T05:05:36;45.43;;;42.63;;
17566;SDS011;8901;52.088;5.084;2022-11-10T05:08:04;42.43;;;39.70;;
17566;SDS011;8901;52.088;5.084;2022-11-10T05:10:32;42.63;;;40.03;;
17566;SDS011;8901;52.088;5.084;2022-11-10T05:12:59;43.27;;;40.60;;
17566;SDS011;8901;52.088;5.084;2022-11-10T05:15:27;42.77;;;40.07;;
17566;SDS011;8901;52.088;5.084;2022-11-10T05:17:54;43.17;;;40.07;;
17566;SDS011;8901;52.088;5.084;2022-11-10T05:20:22;43.53;;;40.73;;
17566;SDS011;8901;52.088;5.084;2022-11-10T05:22:49;41.77;;;38.83;;
17566;SDS011;8901;52.088;5.084;2022-11-10T05:25:31;40.87;;;38.23;;
17566;SDS011;8901;52.088;5.084;2022-11-10T05:27:59;41.80;;;38.97;;
17566;SDS011;8901;52.088;5.084;2022-11-10T05:30:26;43.60;;;40.50;;
17566;SDS011;8901;52.088;5.084;2022-11-10T05:32:54;41.50;;;38.70;;
17566;SDS011;8901;52.088;5.084;2022-11-10T05:35:21;41.13;;;38.40;;
17566;SDS011;8901;52.088;5.084;2022-11-10T05:37:48;40.37;;;37.20;;
17566;SDS011;8901;52.088;5.084;2022-11-10T05:40:16;38.33;;;35.67;;
17566;SDS011;8901;52.088;5.084;2022-11-10T05:42:43;39.57;;;36.73;;
17566;SDS011;8901;52.088;5.084;2022-11-10T05:45:11;40.03;;;37.03;;
17566;SDS011;8901;52.088;5.084;2022-11-10T05:47:39;40.87;;;37.67;;
17566;SDS011;8901;52.088;5.084;2022-11-10T05:50:07;39.63;;;36.90;;
17566;SDS011;8901;52.088;5.084;2022-11-10T05:52:34;39.27;;;36.57;;
17566;SDS011;8901;52.088;5.084;2022-11-10T05:55:01;38.40;;;35.07;;
17566;SDS011;8901;52.088;5.084;2022-11-10T05:57:28;38.87;;;36.00;;
17566;SDS011;8901;52.088;5.084;2022-11-10T05:59:56;35.60;;;32.90;;
17566;SDS011;8901;52.088;5.084;2022-11-10T06:02:24;38.77;;;35.87;;
17566;SDS011;8901;52.088;5.084;2022-11-10T06:04:51;36.50;;;33.90;;
17566;SDS011;8901;52.088;5.084;2022-11-10T06:07:18;33.63;;;31.23;;
17566;SDS011;8901;52.088;5.084;2022-11-10T06:09:45;36.73;;;34.13;;
17566;SDS011;8901;52.088;5.084;2022-11-10T06:12:13;36.90;;;33.93;;
17566;SDS011;8901;52.088;5.084;2022-11-10T06:14:40;36.67;;;34.00;;
17566;SDS011;8901;52.088;5.084;2022-11-10T06:17:07;37.07;;;34.00;;
17566;SDS011;8901;52.088;5.084;2022-11-10T06:19:36;35.40;;;32.80;;
17566;SDS011;8901;52.088;5.084;2022-11-10T06:22:03;34.33;;;31.83;;
17566;SDS011;8901;52.088;5.084;2022-11-10T06:24:30;39.20;;;36.10;;
17566;SDS011;8901;52.088;5.084;2022-11-10T06:26:57;38.20;;;35.27;;
17566;SDS011;8901;52.088;5.084;2022-11-10T06:29:24;36.17;;;33.47;;
17566;SDS011;8901;52.088;5.084;2022-11-10T06:31:51;36.90;;;34.40;;
17566;SDS011;8901;52.088;5.084;2022-11-10T06:34:19;40.20;;;37.20;;
17566;SDS011;8901;52.088;5.084;2022-11-10T06:36:47;38.33;;;35.80;;
17566;SDS011;8901;52.088;5.084;2022-11-10T06:39:14;36.63;;;34.03;;
17566;SDS011;8901;52.088;5.084;2022-11-10T06:41:42;35.23;;;32.57;;
17566;SDS011;8901;52.088;5.084;2022-11-10T06:44:09;35.27;;;32.47;;
17566;SDS011;8901;52.088;5.084;2022-11-10T06:46:37;37.53;;;34.33;;
17566;SDS011;8901;52.088;5.084;2022-11-10T06:49:04;36.57;;;34.40;;
17566;SDS011;8901;52.088;5.084;2022-11-10T06:51:31;35.60;;;33.20;;
17566;SDS011;8901;52.088;5.084;2022-11-10T06:53:59;38.23;;;35.50;;
17566;SDS011;8901;52.088;5.084;2022-11-10T06:56:26;42.17;;;39.30;;
17566;SDS011;8901;52.088;5.084;2022-11-10T06:58:54;40.50;;;37.90;;
17566;SDS011;8901;52.088;5.084;2022-11-10T07:01:21;43.33;;;40.13;;
17566;SDS011;8901;52.088;5.084;2022-11-10T07:03:50;35.77;;;33.43;;
17566;SDS011;8901;52.088;5.084;2022-11-10T07:06:17;39.23;;;36.57;;
17566;SDS011;8901;52.088;5.084;2022-11-10T07:08:45;41.17;;;38.30;;
17566;SDS011;8901;52.088;5.084;2022-11-10T07:11:14;42.60;;;39.67;;
17566;SDS011;8901;52.088;5.084;2022-11-10T07:13:42;40.73;;;37.73;;
17566;SDS011;8901;52.088;5.084;2022-11-10T07:16:09;41.87;;;39.03;;
17566;SDS011;8901;52.088;5.084;2022-11-10T07:18:36;41.17;;;38.20;;
17566;SDS011;8901;52.088;5.084;2022-11-10T07:21:03;42.47;;;39.57;;
17566;SDS011;8901;52.088;5.084;2022-11-10T07:23:31;43.97;;;41.17;;
17566;SDS011;8901;52.088;5.084;2022-11-10T07:25:59;38.30;;;35.70;;
17566;SDS011;8901;52.088;5.084;2022-11-10T07:28:27;37.57;;;34.90;;
17566;SDS011;8901;52.088;5.084;2022-11-10T07:30:54;36.97;;;34.50;;
17566;SDS011;8901;52.088;5.084;2022-11-10T07:33:22;38.17;;;35.47;;
17566;SDS011;8901;52.088;5.084;2022-11-10T07:35:50;34.97;;;32.53;;
17566;SDS011;8901;52.088;5.084;2022-11-10T07:38:18;35.43;;;32.83;;
17566;SDS011;8901;52.088;5.084;2022-11-10T07:40:45;37.10;;;34.53;;
17566;SDS011;8901;52.088;5.084;2022-11-10T07:43:12;36.10;;;33.13;;
17566;SDS011;8901;52.088;5.084;2022-11-10T07:45:40;34.33;;;31.67;;
17566;SDS011;8901;52.088;5.084;2022-11-10T07:48:08;35.87;;;33.27;;
17566;SDS011;8901;52.088;5.084;2022-11-10T07:50:35;35.97;;;33.17;;
17566;SDS011;8901;52.088;5.084;2022-11-10T07:53:03;35.63;;;33.20;;
17566;SDS011;8901;52.088;5.084;2022-11-10T07:55:30;35.47;;;32.90;;
17566;SDS011;8901;52.088;5.084;2022-11-10T07:57:58;33.47;;;31.20;;
17566;SDS011;8901;52.088;5.084;2022-11-10T08:00:25;36.20;;;33.60;;
17566;SDS011;8901;52.088;5.084;2022-11-10T08:02:54;34.40;;;31.57;;
17566;SDS011;8901;52.088;5.084;2022-11-10T08:05:27;33.87;;;31.30;;
17566;SDS011;8901;52.088;5.084;2022-11-10T08:07:54;34.67;;;31.80;;
17566;SDS011;8901;52.088;5.084;2022-11-10T08:10:21;35.87;;;32.97;;
17566;SDS011;8901;52.088;5.084;2022-11-10T08:12:52;35.90;;;33.20;;
17566;SDS011;8901;52.088;5.084;2022-11-10T08:15:20;37.83;;;34.80;;
17566;SDS011;8901;52.088;5.084;2022-11-10T08:17:47;36.93;;;34.30;;
17566;SDS011;8901;52.088;5.084;2022-11-10T08:23:13;34.17;;;31.73;;
17566;SDS011;8901;52.088;5.084;2022-11-10T08:25:40;36.03;;;32.87;;
17566;SDS011;8901;52.088;5.084;2022-11-10T08:28:08;37.97;;;35.13;;
17566;SDS011;8901;52.088;5.084;2022-11-10T08:30:36;36.83;;;34.27;;
17566;SDS011;8901;52.088;5.084;2022-11-10T08:33:04;38.40;;;35.20;;
17566;SDS011;8901;52.088;5.084;2022-11-10T08:35:33;38.03;;;35.47;;
17566;SDS011;8901;52.088;5.084;2022-11-10T08:38:04;37.10;;;34.10;;
17566;SDS011;8901;52.088;5.084;2022-11-10T08:40:33;34.73;;;32.07;;
17566;SDS011;8901;52.088;5.084;2022-11-10T08:43:01;37.83;;;34.93;;
17566;SDS011;8901;52.088;5.084;2022-11-10T08:45:31;37.33;;;34.87;;
17566;SDS011;8901;52.088;5.084;2022-11-10T08:47:58;37.13;;;34.30;;
17566;SDS011;8901;52.088;5.084;2022-11-10T08:50:29;35.60;;;32.50;;
17566;SDS011;8901;52.088;5.084;2022-11-10T08:52:56;34.60;;;32.03;;
17566;SDS011;8901;52.088;5.084;2022-11-10T08:55:26;32.93;;;30.37;;
17566;SDS011;8901;52.088;5.084;2022-11-10T08:57:58;33.80;;;31.00;;
17566;SDS011;8901;52.088;5.084;2022-11-10T09:00:26;33.50;;;30.67;;
17566;SDS011;8901;52.088;5.084;2022-11-10T09:02:53;33.03;;;30.40;;
17566;SDS011;8901;52.088;5.084;2022-11-10T09:05:21;32.57;;;29.90;;
17566;SDS011;8901;52.088;5.084;2022-11-10T09:07:48;35.00;;;32.10;;
17566;SDS011;8901;52.088;5.084;2022-11-10T09:10:16;34.47;;;31.77;;
17566;SDS011;8901;52.088;5.084;2022-11-10T09:12:43;35.50;;;33.00;;
17566;SDS011;8901;52.088;5.084;2022-11-10T09:15:12;33.83;;;31.13;;
17566;SDS011;8901;52.088;5.084;2022-11-10T09:17:39;33.63;;;31.17;;
17566;SDS011;8901;52.088;5.084;2022-11-10T09:20:07;34.97;;;32.33;;
17566;SDS011;8901;52.088;5.084;2022-11-10T09:22:36;33.87;;;30.90;;
17566;SDS011;8901;52.088;5.084;2022-11-10T09:25:04;35.93;;;33.23;;
17566;SDS011;8901;52.088;5.084;2022-11-10T09:27:33;36.73;;;34.00;;
17566;SDS011;8901;52.088;5.084;2022-11-10T09:30:01;33.50;;;31.17;;
17566;SDS011;8901;52.088;5.084;2022-11-10T09:32:29;36.70;;;33.97;;
17566;SDS011;8901;52.088;5.084;2022-11-10T09:34:57;36.07;;;33.20;;
17566;SDS011;8901;52.088;5.084;2022-11-10T09:37:24;34.57;;;31.87;;
17566;SDS011;8901;52.088;5.084;2022-11-10T09:39:51;33.93;;;31.33;;
17566;SDS011;8901;52.088;5.084;2022-11-10T09:42:24;34.20;;;31.40;;
17566;SDS011;8901;52.088;5.084;2022-11-10T09:44:53;34.27;;;31.47;;
17566;SDS011;8901;52.088;5.084;2022-11-10T09:47:25;33.67;;;31.17;;
17566;SDS011;8901;52.088;5.084;2022-11-10T09:49:55;33.20;;;30.80;;
17566;SDS011;8901;52.088;5.084;2022-11-10T09:52:24;33.13;;;30.37;;
17566;SDS011;8901;52.088;5.084;2022-11-10T09:54:53;32.60;;;30.00;;
17566;SDS011;8901;52.088;5.084;2022-11-10T09:57:24;33.30;;;30.47;;
17566;SDS011;8901;52.088;5.084;2022-11-10T09:59:52;35.55;;;32.80;;
17566;SDS011;8901;52.088;5.084;2022-11-10T10:02:21;34.77;;;31.80;;
17566;SDS011;8901;52.088;5.084;2022-11-10T10:05:01;33.97;;;31.30;;
17566;SDS011;8901;52.088;5.084;2022-11-10T10:07:30;33.97;;;31.17;;
17566;SDS011;8901;52.088;5.084;2022-11-10T10:09:59;32.70;;;30.10;;
17566;SDS011;8901;52.088;5.084;2022-11-10T10:12:35;35.77;;;32.97;;
17566;SDS011;8901;52.088;5.084;2022-11-10T10:15:14;35.07;;;32.13;;
17566;SDS011;8901;52.088;5.084;2022-11-10T10:17:45;34.20;;;31.40;;
17566;SDS011;8901;52.088;5.084;2022-11-10T10:20:16;33.43;;;30.77;;
17566;SDS011;8901;52.088;5.084;2022-11-10T10:22:48;34.53;;;31.77;;
17566;SDS011;8901;52.088;5.084;2022-11-10T10:25:20;34.43;;;31.50;;
17566;SDS011;8901;52.088;5.084;2022-11-10T10:27:50;33.80;;;31.13;;
17566;SDS011;8901;52.088;5.084;2022-11-10T10:30:20;36.67;;;33.80;;
17566;SDS011;8901;52.088;5.084;2022-11-10T10:32:47;34.27;;;31.73;;
17566;SDS011;8901;52.088;5.084;2022-11-10T10:35:16;35.20;;;32.50;;
17566;SDS011;8901;52.088;5.084;2022-11-10T10:37:44;37.43;;;34.13;;
17566;SDS011;8901;52.088;5.084;2022-11-10T10:40:13;34.87;;;32.20;;
17566;SDS011;8901;52.088;5.084;2022-11-10T10:42:40;35.67;;;32.97;;
17566;SDS011;8901;52.088;5.084;2022-11-10T10:45:11;34.67;;;31.97;;
17566;SDS011;8901;52.088;5.084;2022-11-10T10:47:38;36.07;;;33.10;;
17566;SDS011;8901;52.088;5.084;2022-11-10T10:50:18;36.43;;;33.57;;
17566;SDS011;8901;52.088;5.084;2022-11-10T10:52:51;34.97;;;32.17;;
17566;SDS011;8901;52.088;5.084;2022-11-10T10:55:31;34.77;;;31.87;;
17566;SDS011;8901;52.088;5.084;2022-11-10T10:57:59;36.17;;;33.47;;
17566;SDS011;8901;52.088;5.084;2022-11-10T11:00:26;35.43;;;32.73;;
17566;SDS011;8901;52.088;5.084;2022-11-10T11:03:00;31.17;;;29.13;;
17566;SDS011;8901;52.088;5.084;2022-11-10T11:05:29;35.33;;;32.50;;
17566;SDS011;8901;52.088;5.084;2022-11-10T11:07:57;36.07;;;33.23;;
17566;SDS011;8901;52.088;5.084;2022-11-10T11:10:25;35.13;;;32.27;;
17566;SDS011;8901;52.088;5.084;2022-11-10T11:12:52;34.07;;;31.83;;
17566;SDS011;8901;52.088;5.084;2022-11-10T11:15:21;36.10;;;33.47;;
17566;SDS011;8901;52.088;5.084;2022-11-10T11:17:54;34.00;;;31.60;;
17566;SDS011;8901;52.088;5.084;2022-11-10T11:20:25;33.57;;;31.37;;
17566;SDS011;8901;52.088;5.084;2022-11-10T11:22:57;33.00;;;30.33;;
17566;SDS011;8901;52.088;5.084;2022-11-10T11:25:27;34.23;;;31.63;;
17566;SDS011;8901;52.088;5.084;2022-11-10T11:27:58;36.77;;;33.83;;
17566;SDS011;8901;52.088;5.084;2022-11-10T11:30:36;36.27;;;33.93;;
17566;SDS011;8901;52.088;5.084;2022-11-10T11:33:20;36.63;;;34.03;;
17566;SDS011;8901;52.088;5.084;2022-11-10T11:35:52;36.97;;;34.13;;
17566;SDS011;8901;52.088;5.084;2022-11-10T11:38:30;36.20;;;33.70;;
17566;SDS011;8901;52.088;5.084;2022-11-10T11:41:00;35.60;;;33.07;;
17566;SDS011;8901;52.088;5.084;2022-11-10T11:46:19;36.97;;;34.37;;
17566;SDS011;8901;52.088;5.084;2022-11-10T11:48:54;36.27;;;33.97;;
17566;SDS011;8901;52.088;5.084;2022-11-10T11:51:25;38.17;;;35.43;;
17566;SDS011;8901;52.088;5.084;2022-11-10T11:54:11;38.47;;;35.77;;
17566;SDS011;8901;52.088;5.084;2022-11-10T11:56:42;39.07;;;36.63;;
17566;SDS011;8901;52.088;5.084;2022-11-10T12:01:59;38.37;;;35.70;;
17566;SDS011;8901;52.088;5.084;2022-11-10T12:04:41;40.17;;;37.50;;
17566;SDS011;8901;52.088;5.084;2022-11-10T12:07:20;38.20;;;35.77;;
17566;SDS011;8901;52.088;5.084;2022-11-10T12:09:54;38.27;;;35.57;;
17566;SDS011;8901;52.088;5.084;2022-11-10T12:12:29;39.23;;;36.53;;
17566;SDS011;8901;52.088;5.084;2022-11-10T12:15:00;40.53;;;37.67;;
17566;SDS011;8901;52.088;5.084;2022-11-10T12:17:30;38.53;;;35.90;;
17566;SDS011;8901;52.088;5.084;2022-11-10T12:20:00;41.47;;;38.57;;
17566;SDS011;8901;52.088;5.084;2022-11-10T12:22:31;40.83;;;37.90;;
17566;SDS011;8901;52.088;5.084;2022-11-10T12:25:05;41.33;;;38.10;;
17566;SDS011;8901;52.088;5.084;2022-11-10T12:27:36;55.20;;;50.57;;
17566;SDS011;8901;52.088;5.084;2022-11-10T12:30:07;63.70;;;58.03;;
17566;SDS011;8901;52.088;5.084;2022-11-10T12:32:36;53.53;;;49.50;;
17566;SDS011;8901;52.088;5.084;2022-11-10T12:35:06;57.30;;;52.53;;
17566;SDS011;8901;52.088;5.084;2022-11-10T12:37:38;49.37;;;45.90;;
17566;SDS011;8901;52.088;5.084;2022-11-10T12:40:13;53.27;;;49.27;;
17566;SDS011;8901;52.088;5.084;2022-11-10T12:42:41;55.60;;;51.33;;
17566;SDS011;8901;52.088;5.084;2022-11-10T12:45:16;57.53;;;52.63;;
17566;SDS011;8901;52.088;5.084;2022-11-10T12:47:45;53.10;;;48.83;;
17566;SDS011;8901;52.088;5.084;2022-11-10T12:50:18;59.10;;;54.20;;
17566;SDS011;8901;52.088;5.084;2022-11-10T12:52:47;57.80;;;52.77;;
17566;SDS011;8901;52.088;5.084;2022-11-10T12:55:17;57.80;;;52.80;;
17566;SDS011;8901;52.088;5.084;2022-11-10T12:57:46;59.77;;;54.40;;
17566;SDS011;8901;52.088;5.084;2022-11-10T13:00:23;60.00;;;54.83;;
17566;SDS011;8901;52.088;5.084;2022-11-10T13:02:52;64.83;;;58.23;;
17566;SDS011;8901;52.088;5.084;2022-11-10T13:05:34;47.67;;;43.97;;
17566;SDS011;8901;52.088;5.084;2022-11-10T13:08:13;76.73;;;69.00;;
17566;SDS011;8901;52.088;5.084;2022-11-10T13:10:48;100.83;;;87.97;;
17566;SDS011;8901;52.088;5.084;2022-11-10T13:13:16;60.03;;;54.43;;
17566;SDS011;8901;52.088;5.084;2022-11-10T13:15:44;58.27;;;52.77;;
17566;SDS011;8901;52.088;5.084;2022-11-10T13:18:20;51.27;;;46.93;;
17566;SDS011;8901;52.088;5.084;2022-11-10T13:20:49;45.83;;;42.57;;
17566;SDS011;8901;52.088;5.084;2022-11-10T13:23:20;45.97;;;42.33;;
17566;SDS011;8901;52.088;5.084;2022-11-10T13:25:59;44.03;;;41.40;;
17566;SDS011;8901;52.088;5.084;2022-11-10T13:31:37;47.37;;;44.00;;
17566;SDS011;8901;52.088;5.084;2022-11-10T13:34:08;48.10;;;44.80;;
17566;SDS011;8901;52.088;5.084;2022-11-10T13:36:36;46.73;;;43.80;;
17566;SDS011;8901;52.088;5.084;2022-11-10T13:39:21;45.47;;;42.53;;
17566;SDS011;8901;52.088;5.084;2022-11-10T13:41:51;45.27;;;42.30;;
17566;SDS011;8901;52.088;5.084;2022-11-10T13:44:21;43.33;;;40.53;;
17566;SDS011;8901;52.088;5.084;2022-11-10T13:46:57;46.07;;;42.67;;
17566;SDS011;8901;52.088;5.084;2022-11-10T13:49:39;43.23;;;40.13;;
17566;SDS011;8901;52.088;5.084;2022-11-10T13:52:14;43.30;;;40.60;;
17566;SDS011;8901;52.088;5.084;2022-11-10T13:54:53;43.80;;;40.90;;
17566;SDS011;8901;52.088;5.084;2022-11-10T13:57:26;42.13;;;39.30;;
17566;SDS011;8901;52.088;5.084;2022-11-10T13:59:55;42.67;;;40.03;;
17566;SDS011;8901;52.088;5.084;2022-11-10T14:02:47;41.40;;;38.83;;
17566;SDS011;8901;52.088;5.084;2022-11-10T14:08:03;43.63;;;40.57;;
17566;SDS011;8901;52.088;5.084;2022-11-10T14:10:38;42.67;;;39.97;;
17566;SDS011;8901;52.088;5.084;2022-11-10T14:13:10;42.47;;;39.63;;
17566;SDS011;8901;52.088;5.084;2022-11-10T14:15:38;40.87;;;37.97;;
17566;SDS011;8901;52.088;5.084;2022-11-10T14:18:13;43.30;;;40.60;;
17566;SDS011;8901;52.088;5.084;2022-11-10T14:20:42;40.43;;;37.83;;
17566;SDS011;8901;52.088;5.084;2022-11-10T14:23:12;44.77;;;41.37;;
17566;SDS011;8901;52.088;5.084;2022-11-10T14:25:42;43.97;;;41.30;;
17566;SDS011;8901;52.088;5.084;2022-11-10T14:28:24;44.37;;;41.57;;
17566;SDS011;8901;52.088;5.084;2022-11-10T14:30:52;45.97;;;43.23;;
17566;SDS011;8901;52.088;5.084;2022-11-10T14:33:22;45.43;;;42.13;;
17566;SDS011;8901;52.088;5.084;2022-11-10T14:35:51;44.10;;;41.43;;
17566;SDS011;8901;52.088;5.084;2022-11-10T14:38:20;44.80;;;41.77;;
17566;SDS011;8901;52.088;5.084;2022-11-10T14:40:47;44.10;;;41.23;;
17566;SDS011;8901;52.088;5.084;2022-11-10T14:43:26;40.53;;;38.07;;
17566;SDS011;8901;52.088;5.084;2022-11-10T14:45:54;43.70;;;41.00;;
17566;SDS011;8901;52.088;5.084;2022-11-10T14:48:22;45.53;;;42.83;;
17566;SDS011;8901;52.088;5.084;2022-11-10T14:50:50;45.63;;;42.43;;
17566;SDS011;8901;52.088;5.084;2022-11-10T14:53:18;44.97;;;42.00;;
17566;SDS011;8901;52.088;5.084;2022-11-10T14:55:46;44.37;;;41.47;;
17566;SDS011;8901;52.088;5.084;2022-11-10T14:58:16;44.67;;;41.80;;
17566;SDS011;8901;52.088;5.084;2022-11-10T15:00:48;46.77;;;43.67;;